Coastal 303 — WDE2540 — position and weather

sailwx.info

Track history (hours):
 
Tides and Currents Weather Stations Pressure Air Temp Water Temp Dewpoint Dewpoint Depression Visibility Wind Speed Wind Dir Waves Ship Positions

Coastal 303

More information available from US FCC via Universal Licensing System and Coast Guard Vessel Documentation Center.

Last reported at 2014-Sep-22 12:09 UTC. Time now 2014-Sep-23 22:23 UTC.
Position N 29°38' W 089°55'.

Length 180 m; draft 8.2 m.

Type: Towing. MMSI: 366751340.

Date/timePositionNaut miles runAvg speedWind from/ knotsBaromVisibWave heightAir tempDewpointWater temp
2014-Sep-22 12:09N 29°38' W 089°55'3 0.8
2014-Sep-22 08:04N 29°36' W 089°52'0 0.0
2014-Sep-22 07:19N 29°36' W 089°52'  
2014-Sep-15 08:28N 29°50' W 089°60'380 8.1
2014-Sep-13 09:28N 27°38' W 083°14'9 9.7
2014-Sep-13 08:33N 27°36' W 083°04'10 9.6
2014-Sep-13 07:33N 27°36' W 082°53'9 8.9
2014-Sep-13 06:33N 27°36' W 082°43'8 8.1
2014-Sep-13 05:33N 27°41' W 082°35'8 8.2
2014-Sep-13 04:33N 27°48' W 082°30'4 4.5
2014-Sep-13 03:33N 27°48' W 082°25'0 0.1
2014-Sep-13 02:32N 27°48' W 082°25'0 0.0
2014-Sep-13 01:33N 27°48' W 082°25'0 0.0
2014-Sep-13 00:33N 27°48' W 082°25'0 0.0
2014-Sep-12 23:33N 27°48' W 082°25'0 0.0
2014-Sep-12 22:33N 27°48' W 082°25'0 0.1
2014-Sep-12 21:33N 27°48' W 082°25'0 0.0
2014-Sep-12 20:33N 27°48' W 082°25'0 0.0
2014-Sep-12 19:33N 27°48' W 082°25'0 0.0
2014-Sep-12 18:33N 27°48' W 082°25'0 0.0
2014-Sep-12 17:33N 27°48' W 082°25'0 0.0
2014-Sep-12 16:33N 27°48' W 082°25'0 0.0
2014-Sep-12 15:33N 27°48' W 082°25'0 0.0
2014-Sep-12 14:33N 27°48' W 082°25'0 0.0
2014-Sep-12 13:33N 27°48' W 082°25'0 0.0
2014-Sep-12 12:30N 27°48' W 082°25'  
Track history (hours):
 
Tides and Currents Weather Stations Pressure Air Temp Water Temp Dewpoint Dewpoint Depression Visibility Wind Speed Wind Dir Waves Ship Positions

Coastal 303

More information available from US FCC via Universal Licensing System and Coast Guard Vessel Documentation Center.

Last reported at 2014-Sep-22 12:09 UTC. Time now 2014-Sep-23 22:23 UTC.
Position N 29°38' W 089°55'.

Length 180 m; draft 8.2 m.

Type: Towing. MMSI: 366751340.

Date/timePositionNaut miles runAvg speedWind from/ knotsBaromVisibWave heightAir tempDewpointWater temp
2014-Sep-22 12:09N 29°38' W 089°55'3 0.8
2014-Sep-22 08:04N 29°36' W 089°52'0 0.0
2014-Sep-22 07:19N 29°36' W 089°52'  
2014-Sep-15 08:28N 29°50' W 089°60'380 8.1
2014-Sep-13 09:28N 27°38' W 083°14'9 9.7
2014-Sep-13 08:33N 27°36' W 083°04'10 9.6
2014-Sep-13 07:33N 27°36' W 082°53'9 8.9
2014-Sep-13 06:33N 27°36' W 082°43'8 8.1
2014-Sep-13 05:33N 27°41' W 082°35'8 8.2
2014-Sep-13 04:33N 27°48' W 082°30'4 4.5
2014-Sep-13 03:33N 27°48' W 082°25'0 0.1
2014-Sep-13 02:32N 27°48' W 082°25'0 0.0
2014-Sep-13 01:33N 27°48' W 082°25'0 0.0
2014-Sep-13 00:33N 27°48' W 082°25'0 0.0
2014-Sep-12 23:33N 27°48' W 082°25'0 0.0
2014-Sep-12 22:33N 27°48' W 082°25'0 0.1
2014-Sep-12 21:33N 27°48' W 082°25'0 0.0
2014-Sep-12 20:33N 27°48' W 082°25'0 0.0
2014-Sep-12 19:33N 27°48' W 082°25'0 0.0
2014-Sep-12 18:33N 27°48' W 082°25'0 0.0
2014-Sep-12 17:33N 27°48' W 082°25'0 0.0
2014-Sep-12 16:33N 27°48' W 082°25'0 0.0
2014-Sep-12 15:33N 27°48' W 082°25'0 0.0
2014-Sep-12 14:33N 27°48' W 082°25'0 0.0
2014-Sep-12 13:33N 27°48' W 082°25'0 0.0
2014-Sep-12 12:30N 27°48' W 082°25'  

Dump ship's entire track history